createdAt,value
2024-02-29T00:00:37.630Z,100659.09
2024-02-29T00:03:05.758Z,100660.13
2024-02-29T00:05:33.902Z,100666.25
2024-02-29T00:08:02.857Z,100665.34
2024-02-29T00:10:31.057Z,100660.97
2024-02-29T00:13:00.931Z,100658.22
2024-02-29T00:15:30.518Z,100660.75
2024-02-29T00:17:58.953Z,100651.06
2024-02-29T00:20:26.973Z,100644.13
2024-02-29T00:22:55.171Z,100652.09
2024-02-29T00:25:23.284Z,100648.59
2024-02-29T00:27:51.274Z,100654.97
2024-02-29T00:30:20.693Z,100647.13
2024-02-29T00:32:48.812Z,100657.66
2024-02-29T00:35:17.446Z,100649.88
2024-02-29T00:37:46.125Z,100651.84
2024-02-29T00:40:14.446Z,100645.72
2024-02-29T00:42:42.463Z,100654.41
2024-02-29T00:45:10.842Z,100654.63
2024-02-29T00:47:40.292Z,100651.41
2024-02-29T00:50:09.385Z,100661.91
2024-02-29T00:52:37.423Z,100662.09
2024-02-29T00:55:08.262Z,100661.28
2024-02-29T00:57:36.404Z,100660.63
2024-02-29T01:00:04.201Z,100658.13
2024-02-29T01:02:32.108Z,100652.84
2024-02-29T01:05:01.578Z,100663.38
2024-02-29T01:07:29.617Z,100659.13
2024-02-29T01:09:59.371Z,100653.13
2024-02-29T01:12:27.329Z,100648.72
2024-02-29T01:14:55.333Z,100647.72
2024-02-29T01:17:24.149Z,100640.53
2024-02-29T01:19:52.148Z,100642.25
2024-02-29T01:22:21.487Z,100643.19
2024-02-29T01:24:49.509Z,100645.94
2024-02-29T01:27:17.450Z,100645.84
2024-02-29T01:29:45.695Z,100634.50
2024-02-29T01:32:19.083Z,100634.56
2024-02-29T01:34:54.113Z,100640.72
2024-02-29T01:37:23.587Z,100635.34
2024-02-29T01:39:51.791Z,100645.06
2024-02-29T01:42:20.018Z,100639.06
2024-02-29T01:44:54.555Z,100645.44
2024-02-29T01:47:22.717Z,100646.28
2024-02-29T01:49:51.258Z,100637.56
2024-02-29T01:52:20.650Z,100635.91
2024-02-29T01:54:50.097Z,100640.28
2024-02-29T01:57:18.357Z,100627.22
2024-02-29T01:59:47.787Z,100619.34
2024-02-29T02:02:15.783Z,100626.47
2024-02-29T02:04:43.774Z,100624.78
2024-02-29T02:07:12.066Z,100624.84
2024-02-29T02:09:42.493Z,100616.91
2024-02-29T02:12:12.677Z,100623.84
2024-02-29T02:14:41.021Z,100621.34
2024-02-29T02:17:10.297Z,100623.97
2024-02-29T02:19:40.656Z,100624.03
2024-02-29T02:22:11.702Z,100626.72
2024-02-29T02:24:39.797Z,100626.88
2024-02-29T02:27:08.197Z,100625.06
2024-02-29T02:29:36.205Z,100622.69
2024-02-29T02:32:04.564Z,100624.44
2024-02-29T02:34:32.628Z,100622.63
2024-02-29T02:37:00.766Z,100617.41
2024-02-29T02:39:30.262Z,100616.63
2024-02-29T02:41:58.881Z,100612.25
2024-02-29T02:44:26.859Z,100617.44
2024-02-29T02:46:54.912Z,100617.50
2024-02-29T02:49:22.893Z,100614.03
2024-02-29T02:51:50.931Z,100615.81
2024-02-29T02:54:19.318Z,100619.25
2024-02-29T02:56:48.647Z,100625.28
2024-02-29T02:59:16.708Z,100632.38
2024-02-29T03:01:44.693Z,100639.38
2024-02-29T03:04:13.316Z,100629.72
2024-02-29T03:06:41.502Z,100632.44
2024-02-29T03:09:10.120Z,100636.00
2024-02-29T03:11:38.414Z,100636.00
2024-02-29T03:14:07.989Z,100641.22
2024-02-29T03:16:36.616Z,100642.16
2024-02-29T03:19:06.105Z,100636.03
2024-02-29T03:21:34.271Z,100636.03
2024-02-29T03:24:02.397Z,100643.13
2024-02-29T03:26:30.569Z,100647.50
2024-02-29T03:28:58.528Z,100639.56
2024-02-29T03:31:27.958Z,100645.66
2024-02-29T03:33:56.013Z,100650.13
2024-02-29T03:36:24.020Z,100644.94
2024-02-29T03:38:51.972Z,100655.41
2024-02-29T03:41:19.971Z,100655.44
2024-02-29T03:43:47.974Z,100656.34
2024-02-29T03:46:15.101Z,100655.50
2024-02-29T03:48:44.552Z,100653.75
2024-02-29T03:51:12.487Z,100651.16
2024-02-29T03:53:40.734Z,100644.13
2024-02-29T03:56:09.029Z,100645.06
2024-02-29T03:58:37.290Z,100636.44
2024-02-29T04:01:11.849Z,100645.19
2024-02-29T04:03:40.575Z,100641.69
2024-02-29T04:06:10.480Z,100640.00
2024-02-29T04:08:38.825Z,100645.41
2024-02-29T04:11:06.849Z,100638.38
2024-02-29T04:13:34.881Z,100636.59
2024-02-29T04:16:03.791Z,100635.66
2024-02-29T04:18:32.045Z,100634.81
2024-02-29T04:21:00.006Z,100638.38
2024-02-29T04:23:29.404Z,100633.13
2024-02-29T04:25:57.581Z,100629.63
2024-02-29T04:28:25.635Z,100621.81
2024-02-29T04:30:53.756Z,100632.31
2024-02-29T04:33:21.896Z,100630.50
2024-02-29T04:35:50.131Z,100626.16
2024-02-29T04:38:19.343Z,100621.84
2024-02-29T04:40:48.878Z,100629.78
2024-02-29T04:43:17.865Z,100635.06
2024-02-29T04:45:46.019Z,100635.91
2024-02-29T04:48:14.128Z,100635.94
2024-02-29T04:50:42.173Z,100638.69
2024-02-29T04:53:10.066Z,100643.09
2024-02-29T04:55:38.048Z,100640.47
2024-02-29T04:58:07.536Z,100652.81
2024-02-29T05:00:35.764Z,100649.34
2024-02-29T05:03:04.074Z,100646.69
2024-02-29T05:05:32.097Z,100649.34
2024-02-29T05:08:01.726Z,100645.88
2024-02-29T05:10:29.943Z,100639.72
2024-02-29T05:12:58.057Z,100635.38
2024-02-29T05:15:27.439Z,100637.16
2024-02-29T05:17:55.780Z,100637.13
2024-02-29T05:20:24.142Z,100630.06
2024-02-29T05:22:55.028Z,100642.41
2024-02-29T05:25:23.451Z,100641.53
2024-02-29T05:27:51.555Z,100635.38
2024-02-29T05:30:19.687Z,100633.50
2024-02-29T05:32:49.875Z,100632.50
2024-02-29T05:35:18.088Z,100632.47
2024-02-29T05:37:46.113Z,100633.25
2024-02-29T05:40:15.315Z,100633.13
2024-02-29T05:42:43.718Z,100636.53
2024-02-29T05:45:12.590Z,100645.25
2024-02-29T05:47:40.774Z,100647.84
2024-02-29T05:50:10.736Z,100648.69
2024-02-29T05:52:38.916Z,100645.06
2024-02-29T05:55:07.777Z,100637.22
2024-02-29T05:57:36.251Z,100647.72
2024-02-29T06:00:05.371Z,100645.88
2024-02-29T06:02:38.247Z,100645.84
2024-02-29T06:05:07.266Z,100646.75
2024-02-29T06:07:37.922Z,100654.59
2024-02-29T06:10:10.265Z,100661.56
2024-02-29T06:12:38.448Z,100662.38
2024-02-29T06:15:11.094Z,100662.34
2024-02-29T06:17:42.528Z,100652.69
2024-02-29T06:20:13.279Z,100660.53
2024-02-29T06:22:43.185Z,100660.41
2024-02-29T06:25:11.748Z,100650.72
2024-02-29T06:27:40.661Z,100652.47
2024-02-29T06:30:10.920Z,100642.75
2024-02-29T06:32:41.778Z,100648.78
2024-02-29T06:35:11.194Z,100646.13
2024-02-29T06:37:43.867Z,100655.66
2024-02-29T06:40:13.618Z,100654.50
2024-02-29T06:42:42.173Z,100652.75
2024-02-29T06:45:11.778Z,100656.19
2024-02-29T06:47:41.386Z,100650.88
2024-02-29T06:50:10.150Z,100648.19
2024-02-29T06:52:38.908Z,100650.78
2024-02-29T06:55:09.765Z,100654.28
2024-02-29T06:57:38.132Z,100667.38
2024-02-29T07:00:07.400Z,100664.63
2024-02-29T07:02:35.710Z,100655.72
2024-02-29T07:05:04.010Z,100648.72
2024-02-29T07:07:31.978Z,100649.56
2024-02-29T07:10:00.012Z,100645.19
2024-02-29T07:12:29.387Z,100642.56
2024-02-29T07:14:57.975Z,100639.94
2024-02-29T07:17:25.998Z,100641.66
2024-02-29T07:19:54.036Z,100640.72
2024-02-29T07:22:22.159Z,100644.16
2024-02-29T07:24:50.256Z,100647.41
2024-02-29T07:27:18.276Z,100643.00
2024-02-29T07:29:47.961Z,100643.00
2024-02-29T07:32:16.280Z,100626.25
2024-02-29T07:34:44.242Z,100627.06
2024-02-29T07:37:12.238Z,100633.13
2024-02-29T07:39:40.219Z,100629.59
2024-02-29T07:42:08.269Z,100634.78
2024-02-29T07:44:36.436Z,100630.28
2024-02-29T07:47:06.270Z,100627.50
2024-02-29T07:49:34.256Z,100622.97
2024-02-29T07:52:02.927Z,100611.38
2024-02-29T07:54:30.949Z,100608.69
2024-02-29T07:56:59.048Z,100614.75
2024-02-29T07:59:27.290Z,100609.38
2024-02-29T08:01:55.453Z,100602.97
2024-02-29T08:04:24.866Z,100602.78
2024-02-29T08:06:53.104Z,100598.16
2024-02-29T08:09:22.658Z,100595.31
2024-02-29T08:11:50.630Z,100603.94
2024-02-29T08:14:20.690Z,100592.31
2024-02-29T08:16:48.959Z,100592.97
2024-02-29T08:19:17.806Z,100589.31
2024-02-29T08:21:48.913Z,100589.13
2024-02-29T08:24:17.753Z,100595.09
2024-02-29T08:26:45.989Z,100590.28
2024-02-29T08:29:14.884Z,100586.69
2024-02-29T08:31:44.326Z,100589.13
2024-02-29T08:34:12.490Z,100588.13
2024-02-29T08:36:41.041Z,100580.94
2024-02-29T08:39:10.504Z,100582.59
2024-02-29T08:41:38.529Z,100575.41
2024-02-29T08:44:06.514Z,100574.50
2024-02-29T08:46:34.554Z,100579.81
2024-02-29T08:49:04.051Z,100570.03
2024-02-29T08:51:32.859Z,100577.84
2024-02-29T08:54:01.253Z,100582.16
2024-02-29T08:56:30.667Z,100577.47
2024-02-29T08:58:58.614Z,100574.66
2024-02-29T09:01:27.412Z,100565.50
2024-02-29T09:03:55.598Z,100570.78
2024-02-29T09:06:23.648Z,100567.03
2024-02-29T09:08:51.683Z,100567.81
2024-02-29T09:11:20.010Z,100560.59
2024-02-29T09:13:49.476Z,100560.41
2024-02-29T09:16:17.824Z,100567.28
2024-02-29T09:18:45.970Z,100564.69
2024-02-29T09:21:13.877Z,100565.50
2024-02-29T09:23:42.034Z,100560.88
2024-02-29T09:26:09.982Z,100557.91
2024-02-29T09:28:37.905Z,100544.41
2024-02-29T09:31:07.388Z,100548.78
2024-02-29T09:33:35.584Z,100543.41
2024-02-29T09:36:08.563Z,100541.59
2024-02-29T09:38:36.863Z,100542.91
2024-02-29T09:41:18.444Z,100538.38
2024-02-29T09:43:55.934Z,100546.13
2024-02-29T09:46:25.377Z,100538.31
2024-02-29T09:48:54.315Z,100547.97
2024-02-29T09:51:23.830Z,100533.38
2024-02-29T09:53:54.306Z,100528.94
2024-02-29T09:56:25.137Z,100538.25
2024-02-29T09:58:54.718Z,100532.94
2024-02-29T10:01:24.404Z,100537.06
2024-02-29T10:03:56.744Z,100529.06
2024-02-29T10:06:24.817Z,100530.63
2024-02-29T10:08:52.922Z,100529.66
2024-02-29T10:11:22.080Z,100525.16
2024-02-29T10:13:50.363Z,100529.31
2024-02-29T10:16:18.621Z,100523.94
2024-02-29T10:18:46.725Z,100522.56
2024-02-29T10:21:16.848Z,100528.66
2024-02-29T10:23:45.468Z,100522.16
2024-02-29T10:26:13.424Z,100526.47
2024-02-29T10:28:41.505Z,100514.34
2024-02-29T10:31:09.964Z,100512.84
2024-02-29T10:33:39.966Z,100512.84
2024-02-29T10:36:13.068Z,100510.03
2024-02-29T10:38:42.592Z,100512.97
2024-02-29T10:41:12.772Z,100512.69
2024-02-29T10:43:45.057Z,100503.44
2024-02-29T10:46:16.179Z,100500.84
2024-02-29T10:48:51.022Z,100489.97
2024-02-29T10:51:27.288Z,100494.88
2024-02-29T10:54:07.716Z,100491.63
2024-02-29T10:56:38.028Z,100491.72
2024-02-29T10:59:08.777Z,100486.00
2024-02-29T11:01:38.706Z,100478.69
2024-02-29T11:04:07.604Z,100470.59
2024-02-29T11:06:40.119Z,100467.75
2024-02-29T11:09:10.535Z,100463.00
2024-02-29T11:11:39.460Z,100469.88
2024-02-29T11:14:11.889Z,100472.91
2024-02-29T11:16:41.169Z,100468.38
2024-02-29T11:19:12.764Z,100461.56
2024-02-29T11:21:41.051Z,100456.19
2024-02-29T11:24:11.782Z,100457.81
2024-02-29T11:26:39.819Z,100455.78
2024-02-29T11:29:15.859Z,100449.44
2024-02-29T11:31:45.413Z,100447.19
2024-02-29T11:34:13.545Z,100447.66
2024-02-29T11:36:43.028Z,100444.56
2024-02-29T11:39:12.414Z,100438.53
2024-02-29T11:41:40.394Z,100434.78
2024-02-29T11:44:08.543Z,100428.19
2024-02-29T11:46:36.583Z,100427.66
2024-02-29T11:49:04.619Z,100434.47
2024-02-29T11:51:33.015Z,100424.94
2024-02-29T11:54:01.243Z,100426.81
2024-02-29T11:56:31.797Z,100417.22
2024-02-29T11:59:03.313Z,100415.09
2024-02-29T12:01:31.910Z,100410.72
2024-02-29T12:03:59.942Z,100408.25
2024-02-29T12:06:28.060Z,100405.44
2024-02-29T12:08:57.038Z,100411.13
2024-02-29T12:11:26.349Z,100408.31
2024-02-29T12:13:56.428Z,100400.50
2024-02-29T12:16:25.735Z,100398.16
2024-02-29T12:18:54.025Z,100392.31
2024-02-29T12:21:22.090Z,100388.09
2024-02-29T12:23:51.897Z,100375.78
2024-02-29T12:26:22.561Z,100370.91
2024-02-29T12:28:50.656Z,100378.91
2024-02-29T12:31:21.020Z,100367.66
2024-02-29T12:33:50.218Z,100363.16
2024-02-29T12:36:20.068Z,100370.78
2024-02-29T12:38:49.578Z,100368.38
2024-02-29T12:41:17.986Z,100364.91
2024-02-29T12:43:49.524Z,100354.72
2024-02-29T12:46:20.417Z,100358.94
2024-02-29T12:48:48.700Z,100351.81
2024-02-29T12:51:16.741Z,100349.75
2024-02-29T12:53:44.733Z,100350.44
2024-02-29T12:56:12.901Z,100340.50
2024-02-29T12:58:42.266Z,100334.41
2024-02-29T13:01:10.977Z,100335.66
2024-02-29T13:03:40.385Z,100330.66
2024-02-29T13:06:10.472Z,100334.13
2024-02-29T13:08:39.173Z,100333.38
2024-02-29T13:11:07.272Z,100327.34
2024-02-29T13:13:35.223Z,100324.78
2024-02-29T13:16:03.328Z,100327.16
2024-02-29T13:18:31.313Z,100316.88
2024-02-29T13:21:02.451Z,100310.97
2024-02-29T13:23:31.999Z,100308.81
2024-02-29T13:26:00.515Z,100315.28
2024-02-29T13:28:28.831Z,100314.41
2024-02-29T13:30:56.820Z,100310.28
2024-02-29T13:33:24.829Z,100305.72
2024-02-29T13:35:52.772Z,100316.50
2024-02-29T13:38:22.086Z,100314.97
2024-02-29T13:40:50.213Z,100307.22
2024-02-29T13:43:18.158Z,100313.25
2024-02-29T13:45:46.192Z,100311.22
2024-02-29T13:48:14.649Z,100307.97
2024-02-29T13:50:43.612Z,100304.59
2024-02-29T13:53:11.945Z,100298.84
2024-02-29T13:55:41.314Z,100295.50
2024-02-29T13:58:09.364Z,100300.00
2024-02-29T14:00:37.432Z,100298.81
2024-02-29T14:03:05.790Z,100288.22
2024-02-29T14:05:33.795Z,100293.75
2024-02-29T14:08:01.717Z,100291.09
2024-02-29T14:10:29.763Z,100299.00
2024-02-29T14:12:59.782Z,100289.63
2024-02-29T14:15:27.797Z,100295.84
2024-02-29T14:17:55.797Z,100287.25
2024-02-29T14:20:23.776Z,100283.94
2024-02-29T14:22:51.984Z,100283.41
2024-02-29T14:25:20.068Z,100275.03
2024-02-29T14:27:48.099Z,100281.19
2024-02-29T14:30:18.313Z,100276.97
2024-02-29T14:32:46.408Z,100267.25
2024-02-29T14:35:14.580Z,100270.97
2024-02-29T14:37:42.738Z,100264.69
2024-02-29T14:40:12.764Z,100264.00
2024-02-29T14:42:41.030Z,100259.88
2024-02-29T14:45:10.057Z,100251.75
2024-02-29T14:47:39.677Z,100254.91
2024-02-29T14:50:09.156Z,100257.19
2024-02-29T14:52:40.537Z,100259.25
2024-02-29T14:55:09.307Z,100254.22
2024-02-29T14:57:37.644Z,100248.53
2024-02-29T15:00:15.375Z,100244.06
2024-02-29T15:02:45.084Z,100244.25
2024-02-29T15:05:14.057Z,100246.06
2024-02-29T15:07:42.956Z,100240.31
2024-02-29T15:10:12.667Z,100228.88
2024-02-29T15:12:41.782Z,100228.53
2024-02-29T15:15:10.991Z,100227.78
2024-02-29T15:17:39.486Z,100234.41
2024-02-29T15:20:11.310Z,100233.13
2024-02-29T15:22:40.747Z,100229.06
2024-02-29T15:25:17.023Z,100230.38
2024-02-29T15:27:47.562Z,100227.91
2024-02-29T15:30:16.528Z,100214.50
2024-02-29T15:32:44.579Z,100219.06
2024-02-29T15:35:15.032Z,100223.84
2024-02-29T15:37:43.381Z,100211.56
2024-02-29T15:40:12.605Z,100209.00
2024-02-29T15:42:40.935Z,100203.06
2024-02-29T15:45:09.639Z,100209.47
2024-02-29T15:47:37.798Z,100201.56
2024-02-29T15:50:09.098Z,100205.34
2024-02-29T15:52:38.603Z,100195.63
2024-02-29T15:55:07.868Z,100199.50
2024-02-29T15:57:36.054Z,100200.53
2024-02-29T16:00:05.528Z,100196.16
2024-02-29T16:02:40.515Z,100195.63
2024-02-29T16:05:09.119Z,100187.63
2024-02-29T16:07:38.433Z,100193.13
2024-02-29T16:10:07.359Z,100189.78
2024-02-29T16:12:36.050Z,100187.22
2024-02-29T16:15:04.495Z,100192.75
2024-02-29T16:17:32.524Z,100190.19
2024-02-29T16:20:01.145Z,100189.59
2024-02-29T16:22:29.618Z,100191.47
2024-02-29T16:24:59.000Z,100186.38
2024-02-29T16:27:27.115Z,100193.69
2024-02-29T16:29:55.218Z,100192.06
2024-02-29T16:32:23.161Z,100195.78
2024-02-29T16:34:51.081Z,100189.78
2024-02-29T16:37:29.285Z,100186.53
2024-02-29T16:39:58.780Z,100188.53
2024-02-29T16:42:27.417Z,100190.44
2024-02-29T16:44:55.992Z,100185.13
2024-02-29T16:47:24.098Z,100185.28
2024-02-29T16:49:52.315Z,100181.69
2024-02-29T16:52:25.787Z,100181.69
2024-02-29T16:54:56.219Z,100185.44
2024-02-29T16:57:26.160Z,100188.25
2024-02-29T16:59:54.403Z,100184.69
2024-02-29T17:02:23.671Z,100187.00
2024-02-29T17:04:52.617Z,100176.53
2024-02-29T17:07:20.696Z,100173.41
2024-02-29T17:09:48.993Z,100168.09
2024-02-29T17:12:17.082Z,100167.22
2024-02-29T17:14:46.485Z,100169.13
2024-02-29T17:17:14.844Z,100161.13
2024-02-29T17:19:43.380Z,100163.09
2024-02-29T17:22:12.608Z,100164.34
2024-02-29T17:24:40.600Z,100154.84
2024-02-29T17:27:08.990Z,100160.31
2024-02-29T17:29:37.341Z,100157.91
2024-02-29T17:32:07.523Z,100151.53
2024-02-29T17:34:35.670Z,100157.22
2024-02-29T17:37:03.657Z,100157.59
2024-02-29T17:39:41.303Z,100152.53
2024-02-29T17:42:09.754Z,100150.19
2024-02-29T17:44:38.390Z,100150.34
2024-02-29T17:47:07.867Z,100146.06
2024-02-29T17:49:35.930Z,100144.16
2024-02-29T17:52:04.239Z,100139.22
2024-02-29T17:54:32.306Z,100136.75
2024-02-29T17:57:00.778Z,100140.75
2024-02-29T17:59:29.010Z,100131.50
2024-02-29T18:01:57.163Z,100136.97
2024-02-29T18:04:26.850Z,100133.38
2024-02-29T18:06:55.014Z,100135.97
2024-02-29T18:09:23.223Z,100135.56
2024-02-29T18:11:52.859Z,100139.22
2024-02-29T18:14:20.919Z,100137.59
2024-02-29T18:16:49.026Z,100134.25
2024-02-29T18:19:18.760Z,100135.19
2024-02-29T18:21:49.435Z,100135.22
2024-02-29T18:24:17.646Z,100129.91
2024-02-29T18:26:47.398Z,100128.06
2024-02-29T18:29:17.110Z,100127.34
2024-02-29T18:31:45.392Z,100123.91
2024-02-29T18:34:13.421Z,100120.47
2024-02-29T18:36:42.644Z,100125.53
2024-02-29T18:39:15.091Z,100122.09
2024-02-29T18:41:43.658Z,100121.31
2024-02-29T18:44:13.323Z,100119.63
2024-02-29T18:46:43.176Z,100117.91
2024-02-29T18:49:11.740Z,100111.81
2024-02-29T18:51:44.551Z,100112.00
2024-02-29T18:54:14.329Z,100113.19
2024-02-29T18:56:43.844Z,100104.28
2024-02-29T18:59:13.939Z,100090.25
2024-02-29T19:01:44.823Z,100108.31
2024-02-29T19:04:13.239Z,100104.09
2024-02-29T19:06:41.261Z,100109.34
2024-02-29T19:09:09.692Z,100108.63
2024-02-29T19:11:41.048Z,100105.31
2024-02-29T19:14:09.126Z,100108.75
2024-02-29T19:16:40.328Z,100107.84
2024-02-29T19:19:08.362Z,100100.03
2024-02-29T19:21:37.670Z,100109.84
2024-02-29T19:24:08.055Z,100103.91
2024-02-29T19:26:37.145Z,100099.56
2024-02-29T19:29:07.163Z,100105.78
2024-02-29T19:31:40.223Z,100100.41
2024-02-29T19:34:10.368Z,100101.47
2024-02-29T19:36:38.371Z,100097.88
2024-02-29T19:39:06.372Z,100095.22
2024-02-29T19:41:34.414Z,100097.94
2024-02-29T19:44:02.413Z,100102.47
2024-02-29T19:46:31.866Z,100099.97
2024-02-29T19:49:00.516Z,100110.59
2024-02-29T19:51:28.620Z,100101.78
2024-02-29T19:53:57.207Z,100114.31
2024-02-29T19:56:25.209Z,100119.94
2024-02-29T19:58:53.373Z,100113.78
2024-02-29T20:01:21.405Z,100115.66
2024-02-29T20:03:50.856Z,100118.38
2024-02-29T20:06:18.855Z,100122.81
2024-02-29T20:08:46.794Z,100109.50
2024-02-29T20:11:14.945Z,100112.94
2024-02-29T20:13:43.171Z,100107.63
2024-02-29T20:16:11.156Z,100104.19
2024-02-29T20:18:39.265Z,100105.13
2024-02-29T20:21:09.045Z,100104.25
2024-02-29T20:23:37.158Z,100096.38
2024-02-29T20:26:05.371Z,100095.72
2024-02-29T20:28:33.425Z,100087.84
2024-02-29T20:31:02.484Z,100090.66
2024-02-29T20:33:30.483Z,100092.56
2024-02-29T20:35:58.495Z,100088.41
2024-02-29T20:38:27.824Z,100100.03
2024-02-29T20:40:55.832Z,100092.25
2024-02-29T20:43:23.936Z,100094.13
2024-02-29T20:45:52.524Z,100093.34
2024-02-29T20:48:20.611Z,100092.47
2024-02-29T20:50:48.577Z,100092.41
2024-02-29T20:53:17.191Z,100081.72
2024-02-29T20:55:46.622Z,100084.31
2024-02-29T20:58:15.835Z,100082.47
2024-02-29T21:00:44.217Z,100073.59
2024-02-29T21:03:12.352Z,100070.06
2024-02-29T21:05:40.378Z,100069.16
2024-02-29T21:08:08.641Z,100067.28
2024-02-29T21:10:37.027Z,100067.34
2024-02-29T21:13:06.780Z,100061.03
2024-02-29T21:15:34.820Z,100052.22
2024-02-29T21:18:04.031Z,100063.91
2024-02-29T21:20:32.145Z,100058.69
2024-02-29T21:23:00.064Z,100062.31
2024-02-29T21:25:28.257Z,100057.88
2024-02-29T21:27:56.466Z,100036.69
2024-02-29T21:30:25.794Z,100033.91
2024-02-29T21:32:53.958Z,100023.34
2024-02-29T21:35:22.580Z,100009.41
2024-02-29T21:37:50.866Z,100008.59
2024-02-29T21:40:19.142Z,100000.75
2024-02-29T21:42:48.369Z,99996.13
2024-02-29T21:45:16.946Z,99982.53
2024-02-29T21:47:46.310Z,99984.63
2024-02-29T21:50:14.781Z,99995.38
2024-02-29T21:52:42.844Z,99991.28
2024-02-29T21:55:11.862Z,99978.25
2024-02-29T21:57:39.888Z,99972.16
2024-02-29T22:00:09.977Z,99968.78
2024-02-29T22:02:42.040Z,99967.22
2024-02-29T22:05:13.366Z,99960.34
2024-02-29T22:07:42.497Z,99962.94
2024-02-29T22:10:11.282Z,99975.56
2024-02-29T22:12:39.639Z,99968.72
2024-02-29T22:15:09.751Z,99981.16
2024-02-29T22:17:37.914Z,99980.41
2024-02-29T22:20:09.669Z,99969.91
2024-02-29T22:22:39.052Z,99970.84
2024-02-29T22:25:07.846Z,99971.06
2024-02-29T22:27:35.752Z,99965.91
2024-02-29T22:30:04.322Z,99981.13
2024-02-29T22:32:32.411Z,99964.53
2024-02-29T22:35:00.502Z,99964.59
2024-02-29T22:37:28.581Z,99973.56
2024-02-29T22:39:57.972Z,99964.78
2024-02-29T22:42:26.231Z,99960.41
2024-02-29T22:44:53.527Z,99960.41
2024-02-29T22:47:21.633Z,99949.03
2024-02-29T22:49:49.631Z,99948.84
2024-02-29T22:52:17.620Z,99949.81
2024-02-29T22:54:46.903Z,99924.50
2024-02-29T22:57:16.283Z,99926.38
2024-02-29T22:59:44.246Z,99929.88
2024-02-29T23:02:12.273Z,99922.06
2024-02-29T23:04:40.363Z,99917.69
2024-02-29T23:07:08.547Z,99923.94
2024-02-29T23:09:37.424Z,99917.88
2024-02-29T23:12:05.996Z,99914.44
2024-02-29T23:14:35.345Z,99908.22
2024-02-29T23:17:03.367Z,99904.78
2024-02-29T23:19:31.999Z,99896.13
2024-02-29T23:22:00.079Z,99897.84
2024-02-29T23:24:28.044Z,99887.53
2024-02-29T23:26:55.987Z,99888.19
2024-02-29T23:29:23.967Z,99881.19
2024-02-29T23:31:53.376Z,99882.16
2024-02-29T23:34:22.372Z,99887.97
2024-02-29T23:36:51.750Z,99890.88
2024-02-29T23:39:20.252Z,99884.88
2024-02-29T23:41:48.497Z,99882.50
2024-02-29T23:44:16.425Z,99877.41
2024-02-29T23:46:44.594Z,99884.63
2024-02-29T23:49:13.997Z,99882.97
2024-02-29T23:51:43.176Z,99891.00
2024-02-29T23:54:11.501Z,99897.38
2024-02-29T23:56:39.512Z,99898.25
2024-02-29T23:59:07.572Z,99901.75
